Hampton, Minnesota
Current Conditions -  °F | °C
As of 6:53 PM on Friday 24 Oct 2014 (Local Time) from KSYN Reporting Station
Clear Clear  
Wind Chill: 57°   Ceiling: Unl
Heat Index: 57°   Visibility: 7mi
Dew Point: 53°   Wind: 6mph
Humidity: 85%   Direction: 190°S
Pressure: 29.86"   Gusts: NA
Location:  44.61°N, 93°W
Report Text: KSYN 242353Z AUTO 19005KT 7SM CLR 14/12 A2986 RMK AO2 T01390115 10176 20136
Loading
Personal Weather Stations






























Interactive Weather Map
Tropical Storm Tracking
New forecast layout! Learn more

10-Day Weather Forecast

Advertisements
Track Severe Weather on mobile